Time;durP1;ratioP1;P1;durP2;ratioP2;P2;SDS_P1;SDS_P2;PMS_P1;PMS_P2;Temp;Humidity;BMP_temperature;BMP_pressure;BME280_temperature;BME280_humidity;BME280_pressure;Samples;Min_cycle;Max_cycle;Signal;HPM_P1;HPM_P2
2023/08/09 00:01:24;;;;;;;3.08;1.80;;;15.60;99.90;;;;;;4862924;29;20064;-57
2023/08/09 00:03:51;;;;;;;3.28;1.80;;;15.60;99.90;;;;;;4862511;29;20049;-53
2023/08/09 00:06:18;;;;;;;2.55;1.60;;;15.60;99.90;;;;;;4862984;29;20050;-54
2023/08/09 00:08:45;;;;;;;2.78;1.67;;;15.50;99.90;;;;;;4862409;29;20116;-53
2023/08/09 00:11:11;;;;;;;2.78;1.50;;;15.40;99.90;;;;;;4862828;29;20046;-54
2023/08/09 00:13:38;;;;;;;2.63;1.58;;;15.40;99.90;;;;;;4862806;29;20057;-57
2023/08/09 00:16:05;;;;;;;4.60;1.60;;;15.40;99.90;;;;;;4862712;29;20049;-51
2023/08/09 00:18:32;;;;;;;3.05;1.70;;;15.30;99.90;;;;;;4862552;29;20049;-55
2023/08/09 00:20:58;;;;;;;3.08;2.10;;;15.30;99.90;;;;;;4862686;29;20501;-54
2023/08/09 00:23:25;;;;;;;2.30;1.65;;;15.30;99.90;;;;;;4862530;29;20417;-52
2023/08/09 00:25:52;;;;;;;2.10;1.30;;;15.30;99.90;;;;;;4862501;29;20045;-56
2023/08/09 00:28:18;;;;;;;4.43;1.60;;;15.20;99.90;;;;;;4862346;29;20037;-55
2023/08/09 00:30:46;;;;;;;2.40;1.73;;;15.20;99.90;;;;;;4862486;29;20057;-55
2023/08/09 00:33:13;;;;;;;2.58;1.80;;;15.20;99.90;;;;;;4862088;29;20053;-53
2023/08/09 00:35:39;;;;;;;4.68;1.75;;;15.20;99.90;;;;;;4861811;29;20495;-50
2023/08/09 00:38:07;;;;;;;3.38;2.05;;;15.20;99.90;;;;;;4862299;29;20125;-53
2023/08/09 00:40:34;;;;;;;2.95;1.83;;;15.10;99.90;;;;;;4862134;29;20049;-54
2023/08/09 00:43:01;;;;;;;4.68;1.80;;;15.10;99.90;;;;;;4876259;29;20117;-49
2023/08/09 00:45:27;;;;;;;3.42;2.08;;;15.10;99.90;;;;;;4861929;29;20056;-53
2023/08/09 00:47:54;;;;;;;6.88;1.80;;;15.10;99.90;;;;;;4860849;29;20118;-53
2023/08/09 00:50:21;;;;;;;3.15;1.67;;;15.00;99.90;;;;;;4862054;29;20050;-51
2023/08/09 00:52:48;;;;;;;6.35;1.75;;;15.00;99.90;;;;;;4860394;29;20060;-54
2023/08/09 00:55:15;;;;;;;3.55;1.80;;;15.00;99.90;;;;;;4861889;29;20458;-53
2023/08/09 00:57:41;;;;;;;3.25;1.80;;;14.90;99.90;;;;;;4861721;29;20049;-53
2023/08/09 01:00:09;;;;;;;3.50;2.13;;;14.90;99.90;;;;;;4876178;29;20050;-54
2023/08/09 01:02:36;;;;;;;5.07;2.20;;;14.90;99.90;;;;;;4875949;29;20105;-51
2023/08/09 01:05:04;;;;;;;2.72;2.17;;;14.90;99.90;;;;;;4876077;29;20042;-55
2023/08/09 01:07:31;;;;;;;3.35;2.47;;;14.80;99.90;;;;;;4861097;29;20114;-51
2023/08/09 01:09:58;;;;;;;5.28;2.80;;;14.80;99.90;;;;;;4861657;29;20050;-55
2023/08/09 01:12:26;;;;;;;3.53;2.70;;;14.80;99.90;;;;;;4861391;29;20042;-55
2023/08/09 01:14:53;;;;;;;4.57;2.65;;;14.70;99.90;;;;;;4861533;29;20049;-51
2023/08/09 01:17:20;;;;;;;5.63;2.78;;;14.70;99.90;;;;;;4861209;29;20481;-51
2023/08/09 01:19:47;;;;;;;4.05;2.70;;;14.70;99.90;;;;;;4861245;29;20041;-48
2023/08/09 01:22:15;;;;;;;3.63;3.00;;;14.60;99.90;;;;;;4861622;29;20132;-49
2023/08/09 01:24:42;;;;;;;4.20;2.70;;;14.60;99.90;;;;;;4861286;29;20050;-52
2023/08/09 01:27:09;;;;;;;3.88;2.78;;;14.60;99.90;;;;;;4861063;29;20052;-51
2023/08/09 01:29:35;;;;;;;4.20;2.97;;;14.50;99.90;;;;;;4861259;29;20464;-51
2023/08/09 01:32:02;;;;;;;4.78;2.72;;;14.50;99.90;;;;;;4861391;29;20398;-49
2023/08/09 01:34:30;;;;;;;5.65;3.58;;;14.50;99.90;;;;;;4875366;29;20554;-50
2023/08/09 01:36:57;;;;;;;4.78;3.35;;;14.50;99.90;;;;;;4875523;29;20140;-52
2023/08/09 01:39:25;;;;;;;5.65;3.70;;;14.50;99.90;;;;;;4875585;29;20053;-53
2023/08/09 01:41:52;;;;;;;4.68;4.15;;;14.50;99.90;;;;;;4861201;29;20102;-52
2023/08/09 01:44:19;;;;;;;6.75;4.32;;;14.50;99.90;;;;;;4861147;29;20484;-51
2023/08/09 01:46:45;;;;;;;6.10;4.60;;;14.40;99.90;;;;;;4874484;29;20401;-52
2023/08/09 01:49:12;;;;;;;7.05;4.85;;;14.40;99.90;;;;;;4861197;29;20430;-48
2023/08/09 01:51:39;;;;;;;7.40;5.57;;;14.40;99.90;;;;;;4859778;29;20049;-47
2023/08/09 01:54:06;;;;;;;8.93;5.63;;;14.30;99.90;;;;;;4859537;29;20133;-56
2023/08/09 01:56:33;;;;;;;8.82;6.93;;;14.30;99.90;;;;;;4860906;29;20133;-53
2023/08/09 01:58:59;;;;;;;8.48;6.45;;;14.30;99.90;;;;;;4875230;29;20045;-52
2023/08/09 02:01:26;;;;;;;8.40;6.38;;;14.30;99.90;;;;;;4859651;29;20045;-49
2023/08/09 02:03:54;;;;;;;8.38;6.85;;;14.30;99.90;;;;;;4861218;29;20056;-56
2023/08/09 02:06:20;;;;;;;9.43;6.60;;;14.30;99.90;;;;;;4860900;29;20358;-53
2023/08/09 02:08:47;;;;;;;9.60;6.47;;;14.30;99.90;;;;;;4875140;29;20422;-54
2023/08/09 02:11:14;;;;;;;9.57;6.38;;;14.30;99.90;;;;;;4861042;29;20073;-53
2023/08/09 02:13:41;;;;;;;9.70;6.35;;;14.30;99.90;;;;;;4861012;29;20038;-55
2023/08/09 02:16:08;;;;;;;9.93;6.30;;;14.30;99.90;;;;;;4874883;29;20046;-55
2023/08/09 02:18:34;;;;;;;8.95;6.57;;;14.30;99.90;;;;;;4861028;29;20060;-50
2023/08/09 02:21:05;;;;;;;7.47;6.15;;;14.20;99.90;;;;;;4859887;29;20061;-52
2023/08/09 02:23:32;;;;;;;9.20;7.10;;;14.20;99.90;;;;;;4860957;29;20045;-52
2023/08/09 02:25:59;;;;;;;7.78;6.65;;;14.20;99.90;;;;;;4874935;29;20499;-53
2023/08/09 02:28:25;;;;;;;9.10;7.10;;;14.20;99.90;;;;;;4860701;29;20038;-51
2023/08/09 02:30:53;;;;;;;9.35;6.75;;;14.20;99.90;;;;;;4860796;29;20063;-50
2023/08/09 02:33:20;;;;;;;8.65;7.72;;;14.20;99.90;;;;;;4860307;29;20072;-54
2023/08/09 02:35:47;;;;;;;10.95;7.28;;;14.10;99.90;;;;;;4858960;29;20152;-52
2023/08/09 02:38:15;;;;;;;10.10;7.57;;;14.10;99.90;;;;;;4859297;29;20045;-50
2023/08/09 02:40:42;;;;;;;8.57;6.85;;;14.10;99.90;;;;;;4860859;29;20052;-56
2023/08/09 02:43:08;;;;;;;9.82;7.60;;;14.10;99.90;;;;;;4860581;29;20042;-55
2023/08/09 02:45:35;;;;;;;8.80;7.90;;;14.10;99.90;;;;;;4860758;29;20037;-55
2023/08/09 02:48:03;;;;;;;9.95;7.50;;;14.10;99.90;;;;;;4859157;29;20122;-54
2023/08/09 02:50:29;;;;;;;8.45;7.32;;;14.10;99.90;;;;;;4874925;29;20080;-54
2023/08/09 02:52:56;;;;;;;9.60;7.60;;;14.10;99.90;;;;;;4858955;29;20049;-52
2023/08/09 02:55:23;;;;;;;8.80;7.00;;;14.00;99.90;;;;;;4874664;29;20141;-54
2023/08/09 02:57:50;;;;;;;9.52;7.60;;;14.00;99.90;;;;;;4860432;29;20046;-52
2023/08/09 03:00:17;;;;;;;8.88;7.88;;;14.00;99.90;;;;;;4863707;29;20049;-49
2023/08/09 03:02:44;;;;;;;9.45;7.65;;;14.00;99.90;;;;;;4862485;29;20054;-50
2023/08/09 03:05:11;;;;;;;9.98;7.80;;;14.00;99.90;;;;;;4878041;29;20109;-52
2023/08/09 03:07:38;;;;;;;9.23;7.85;;;14.00;99.90;;;;;;4863446;29;20046;-51
2023/08/09 03:10:05;;;;;;;11.82;8.98;;;14.00;99.90;;;;;;4863527;29;20139;-49
2023/08/09 03:12:32;;;;;;;11.90;9.50;;;14.00;99.90;;;;;;4863733;29;20041;-49
2023/08/09 03:14:58;;;;;;;11.30;9.98;;;14.00;99.90;;;;;;4877880;29;20054;-51
2023/08/09 03:17:26;;;;;;;10.90;9.52;;;14.10;99.90;;;;;;4878018;29;20053;-48
2023/08/09 03:19:53;;;;;;;13.18;10.40;;;14.10;99.90;;;;;;4863512;29;20048;-50
2023/08/09 03:22:20;;;;;;;14.73;9.85;;;14.10;99.90;;;;;;4878032;29;20122;-51
2023/08/09 03:24:47;;;;;;;12.48;10.43;;;14.20;99.90;;;;;;4863595;29;20159;-55
2023/08/09 03:27:13;;;;;;;10.77;9.13;;;14.20;99.90;;;;;;4863514;29;20076;-52
2023/08/09 03:29:40;;;;;;;12.95;9.75;;;14.20;99.90;;;;;;4863599;29;20053;-51
2023/08/09 03:32:08;;;;;;;10.45;9.00;;;14.20;99.90;;;;;;4863576;29;20125;-53
2023/08/09 03:34:35;;;;;;;14.57;9.60;;;14.20;99.90;;;;;;4846997;29;20113;-51
2023/08/09 03:37:03;;;;;;;9.98;8.93;;;14.20;99.90;;;;;;4877581;29;20042;-54
2023/08/09 03:39:31;;;;;;;12.75;9.93;;;14.30;99.90;;;;;;4861035;29;20505;-53
2023/08/09 03:41:58;;;;;;;10.85;9.68;;;14.30;99.90;;;;;;4861100;29;20057;-55
2023/08/09 03:44:25;;;;;;;11.57;10.25;;;14.30;99.90;;;;;;4861203;29;20057;-52
2023/08/09 03:46:52;;;;;;;14.57;11.05;;;14.30;99.90;;;;;;4845647;29;20057;-50
2023/08/09 03:49:19;;;;;;;11.35;9.90;;;14.20;99.90;;;;;;4861235;29;20458;-52
2023/08/09 03:51:46;;;;;;;11.55;9.88;;;14.30;99.90;;;;;;4860899;29;20066;-56
2023/08/09 03:54:13;;;;;;;12.85;10.57;;;14.20;99.90;;;;;;4860830;29;20049;-54
2023/08/09 03:56:40;;;;;;;13.80;10.68;;;14.20;99.90;;;;;;4844777;29;20509;-56
2023/08/09 03:59:08;;;;;;;13.82;11.10;;;14.20;99.90;;;;;;4860619;29;20053;-54
2023/08/09 04:01:36;;;;;;;11.35;10.10;;;14.20;99.90;;;;;;4861062;29;20143;-50
2023/08/09 04:04:03;;;;;;;12.50;10.13;;;14.20;99.90;;;;;;4860564;29;20050;-54
2023/08/09 04:06:33;;;;;;;11.07;9.98;;;14.20;99.90;;;;;;4845299;29;20077;-54
2023/08/09 04:09:00;;;;;;;11.85;10.05;;;14.20;99.90;;;;;;4860272;29;20145;-53
2023/08/09 04:11:29;;;;;;;12.27;9.65;;;14.20;99.90;;;;;;4860359;29;20063;-55
2023/08/09 04:13:56;;;;;;;12.10;10.10;;;14.10;99.90;;;;;;4845345;29;20054;-55
2023/08/09 04:16:23;;;;;;;12.07;10.18;;;14.10;99.90;;;;;;4862102;29;20054;-51
2023/08/09 04:18:50;;;;;;;15.88;10.88;;;14.10;99.90;;;;;;4877044;29;20046;-53
2023/08/09 04:21:17;;;;;;;12.30;10.57;;;14.10;99.90;;;;;;4861115;29;20049;-49
2023/08/09 04:23:44;;;;;;;12.35;11.05;;;14.10;99.90;;;;;;4861245;29;20061;-54
2023/08/09 04:26:11;;;;;;;11.98;10.68;;;14.10;99.90;;;;;;4862360;29;20037;-52
2023/08/09 04:28:37;;;;;;;11.75;10.55;;;14.10;99.90;;;;;;4861177;29;20041;-53
2023/08/09 04:31:04;;;;;;;12.70;9.88;;;14.20;99.90;;;;;;4862516;29;20044;-53
2023/08/09 04:33:31;;;;;;;11.43;10.20;;;14.20;99.90;;;;;;4862099;29;20046;-55
2023/08/09 04:35:59;;;;;;;13.30;10.02;;;14.20;99.90;;;;;;4862342;29;20109;-52
2023/08/09 04:38:25;;;;;;;11.82;10.18;;;14.30;99.90;;;;;;4862327;29;20064;-54
2023/08/09 04:40:52;;;;;;;11.52;10.32;;;14.30;99.90;;;;;;4861921;29;20042;-52
2023/08/09 04:43:19;;;;;;;10.68;9.48;;;14.30;99.90;;;;;;4862150;29;20088;-55
2023/08/09 04:45:47;;;;;;;13.57;10.35;;;14.40;99.90;;;;;;4862032;29;20053;-54
2023/08/09 04:48:14;;;;;;;11.27;9.98;;;14.40;99.90;;;;;;4862153;29;20046;-53
2023/08/09 04:50:41;;;;;;;9.73;8.38;;;14.40;99.90;;;;;;4861954;29;20105;-55
2023/08/09 04:53:07;;;;;;;12.23;9.80;;;14.40;99.90;;;;;;4862082;29;20388;-52
2023/08/09 04:55:34;;;;;;;10.18;9.13;;;14.50;99.90;;;;;;4861995;29;20101;-55
2023/08/09 04:58:01;;;;;;;12.30;9.00;;;14.50;99.90;;;;;;4862208;29;20141;-52
2023/08/09 05:00:28;;;;;;;11.63;9.02;;;14.50;99.90;;;;;;4862253;29;20041;-52
2023/08/09 05:02:55;;;;;;;10.93;8.95;;;14.50;99.90;;;;;;4861866;29;20132;-56
2023/08/09 05:05:22;;;;;;;11.52;8.80;;;14.50;99.90;;;;;;4861926;29;20093;-56
2023/08/09 05:07:49;;;;;;;9.80;8.75;;;14.50;99.90;;;;;;4861664;29;20045;-51
2023/08/09 05:10:15;;;;;;;9.80;8.80;;;14.50;99.90;;;;;;4861783;29;20042;-53
2023/08/09 05:12:42;;;;;;;9.32;8.40;;;14.40;99.90;;;;;;4861704;29;20488;-56
2023/08/09 05:15:09;;;;;;;11.20;9.13;;;14.40;99.90;;;;;;4861723;29;20048;-55
2023/08/09 05:17:36;;;;;;;11.07;9.00;;;14.40;99.90;;;;;;4861249;29;20049;-55
2023/08/09 05:20:03;;;;;;;10.55;8.45;;;14.40;99.90;;;;;;4861101;29;20073;-54
2023/08/09 05:22:29;;;;;;;12.13;8.40;;;14.40;99.90;;;;;;4861050;29;20060;-50
2023/08/09 05:24:56;;;;;;;10.73;8.88;;;14.40;99.90;;;;;;4861388;29;20490;-51
2023/08/09 05:27:23;;;;;;;13.40;9.90;;;14.40;99.90;;;;;;4861216;29;20482;-53
2023/08/09 05:29:49;;;;;;;10.02;8.90;;;14.40;99.90;;;;;;4861113;29;20057;-50
2023/08/09 05:32:16;;;;;;;9.98;8.40;;;14.40;99.90;;;;;;4861348;29;20049;-50
2023/08/09 05:34:43;;;;;;;8.80;7.90;;;14.50;99.90;;;;;;4861301;29;20120;-49
2023/08/09 05:37:10;;;;;;;9.20;8.30;;;14.60;99.90;;;;;;4859931;29;20049;-49
2023/08/09 05:39:37;;;;;;;9.13;8.15;;;14.70;99.90;;;;;;4861256;29;20045;-47
2023/08/09 05:42:04;;;;;;;8.40;7.55;;;14.80;99.90;;;;;;4861162;29;20049;-49
2023/08/09 05:44:30;;;;;;;8.55;7.28;;;14.90;99.90;;;;;;4861008;29;20500;-53
2023/08/09 05:46:57;;;;;;;9.10;7.88;;;15.10;99.90;;;;;;4861142;29;20041;-51
2023/08/09 05:49:24;;;;;;;10.70;7.45;;;15.20;99.90;;;;;;4860198;29;20068;-56
2023/08/09 05:51:52;;;;;;;8.98;8.07;;;15.20;99.90;;;;;;4861065;29;20120;-56
2023/08/09 05:54:18;;;;;;;10.70;8.90;;;15.20;99.90;;;;;;4861103;29;20048;-54
2023/08/09 05:56:45;;;;;;;10.32;8.00;;;15.10;99.90;;;;;;4860707;29;20049;-49
2023/08/09 05:59:12;;;;;;;8.90;7.68;;;15.10;99.90;;;;;;4861263;29;20042;-52
2023/08/09 06:01:39;;;;;;;9.52;7.68;;;15.10;99.90;;;;;;4861061;29;20049;-51
2023/08/09 06:04:07;;;;;;;8.57;7.63;;;15.00;99.90;;;;;;4860872;29;20052;-51
2023/08/09 06:06:35;;;;;;;7.32;6.63;;;15.00;99.90;;;;;;4861003;29;20041;-53
2023/08/09 06:09:05;;;;;;;11.10;7.47;;;14.90;99.90;;;;;;4861454;29;20049;-54
2023/08/09 06:11:49;;;;;;;8.45;6.97;;;14.90;99.90;;;;;;4861246;29;20029;-53
2023/08/09 06:14:15;;;;;;;7.45;6.70;;;14.80;99.90;;;;;;4861198;29;20409;-57
2023/08/09 06:16:45;;;;;;;8.93;7.30;;;14.80;99.90;;;;;;4859669;29;20038;-51
2023/08/09 06:19:12;;;;;;;6.82;6.13;;;14.80;99.90;;;;;;4860855;29;20033;-54
2023/08/09 06:21:39;;;;;;;7.68;5.97;;;14.70;99.90;;;;;;4860788;29;20050;-50
2023/08/09 06:24:06;;;;;;;7.78;6.88;;;14.70;99.90;;;;;;4860930;29;20056;-51
2023/08/09 06:26:33;;;;;;;11.07;6.28;;;14.70;99.90;;;;;;4860989;29;20053;-51
2023/08/09 06:29:02;;;;;;;8.77;5.78;;;14.70;99.90;;;;;;4874932;29;20508;-51
2023/08/09 06:31:29;;;;;;;8.55;5.65;;;14.70;99.90;;;;;;4860847;29;20520;-54
2023/08/09 06:33:56;;;;;;;8.18;6.03;;;14.70;99.90;;;;;;4864090;29;20493;-54
2023/08/09 06:36:23;;;;;;;7.25;4.82;;;14.80;99.90;;;;;;4864639;29;20057;-55
2023/08/09 06:38:50;;;;;;;6.03;5.07;;;14.80;99.90;;;;;;4878188;29;20061;-56
2023/08/09 06:41:16;;;;;;;6.68;5.18;;;14.80;99.90;;;;;;4847721;29;20049;-48
2023/08/09 06:43:43;;;;;;;6.65;4.78;;;14.80;99.90;;;;;;4863825;29;20071;-51
2023/08/09 06:46:11;;;;;;;7.20;4.07;;;14.90;99.90;;;;;;4862779;29;20104;-52
2023/08/09 06:48:38;;;;;;;5.25;4.28;;;14.80;99.90;;;;;;4863144;29;20056;-54
2023/08/09 06:51:05;;;;;;;8.20;4.18;;;14.90;99.90;;;;;;4864183;29;20049;-52
2023/08/09 06:53:32;;;;;;;5.28;3.72;;;14.90;99.90;;;;;;4862877;29;20050;-53
2023/08/09 06:55:59;;;;;;;7.43;3.90;;;15.00;99.90;;;;;;4862680;29;20148;-56
2023/08/09 06:58:25;;;;;;;5.63;3.65;;;15.00;99.90;;;;;;4863082;29;20045;-52
2023/08/09 07:00:53;;;;;;;6.43;3.88;;;15.10;99.90;;;;;;4862808;29;20553;-55
2023/08/09 07:03:20;;;;;;;5.47;3.20;;;15.10;99.90;;;;;;4863967;29;20494;-55
2023/08/09 07:05:47;;;;;;;3.97;2.90;;;15.20;99.90;;;;;;4864067;29;20411;-53
2023/08/09 07:08:14;;;;;;;6.32;2.60;;;15.10;99.90;;;;;;4863378;29;20473;-55
2023/08/09 07:10:40;;;;;;;7.93;3.42;;;15.10;99.90;;;;;;4878023;29;20052;-53
2023/08/09 07:13:07;;;;;;;6.10;3.17;;;15.20;99.90;;;;;;4850010;29;20054;-56
2023/08/09 07:15:34;;;;;;;5.40;2.88;;;15.20;99.90;;;;;;4845676;29;20124;-53
2023/08/09 07:18:01;;;;;;;6.82;3.00;;;15.30;99.90;;;;;;4845285;29;20045;-55
2023/08/09 07:20:28;;;;;;;5.18;3.10;;;15.30;99.90;;;;;;4845192;29;20050;-51
2023/08/09 07:22:55;;;;;;;3.78;2.97;;;15.30;99.90;;;;;;4845495;29;20050;-52
2023/08/09 07:25:22;;;;;;;5.10;2.88;;;15.40;99.90;;;;;;4845101;29;20406;-54
2023/08/09 07:27:49;;;;;;;4.28;2.80;;;15.40;99.90;;;;;;4844801;29;20062;-52
2023/08/09 07:30:16;;;;;;;4.78;3.00;;;15.40;99.90;;;;;;4843851;29;20046;-51
2023/08/09 07:32:43;;;;;;;4.20;2.42;;;15.40;99.90;;;;;;4859143;29;20068;-49
2023/08/09 07:35:10;;;;;;;5.32;2.50;;;15.50;99.90;;;;;;4845035;29;20056;-54
2023/08/09 07:37:37;;;;;;;3.92;2.67;;;15.60;99.90;;;;;;4844799;29;20065;-55
2023/08/09 07:40:04;;;;;;;4.10;2.60;;;15.70;99.90;;;;;;4844779;29;20106;-52
2023/08/09 07:42:31;;;;;;;4.47;2.30;;;15.90;99.90;;;;;;4844820;29;20134;-52
2023/08/09 07:44:58;;;;;;;5.18;2.40;;;16.00;99.90;;;;;;4844080;29;20382;-55
2023/08/09 07:47:24;;;;;;;4.38;2.70;;;16.00;99.90;;;;;;4858714;29;20098;-48
2023/08/09 07:49:51;;;;;;;5.28;2.30;;;16.10;99.90;;;;;;4844957;29;20541;-54
2023/08/09 07:52:18;;;;;;;4.50;2.35;;;16.00;99.90;;;;;;4858971;29;20061;-54
2023/08/09 07:54:45;;;;;;;4.28;2.28;;;16.00;99.90;;;;;;4844719;29;20120;-54
2023/08/09 07:57:12;;;;;;;5.95;2.30;;;16.10;99.90;;;;;;4844192;29;20054;-52
2023/08/09 07:59:39;;;;;;;4.20;2.05;;;16.10;99.90;;;;;;4845025;29;20050;-57
2023/08/09 08:02:06;;;;;;;4.32;2.20;;;16.20;99.90;;;;;;4844340;29;20046;-55
2023/08/09 08:04:34;;;;;;;3.20;2.00;;;16.20;99.90;;;;;;4844141;29;20046;-56
2023/08/09 08:07:01;;;;;;;3.40;1.90;;;16.20;99.90;;;;;;4844070;29;20103;-56
2023/08/09 08:09:27;;;;;;;4.53;2.20;;;16.20;99.90;;;;;;4843899;29;20042;-53
2023/08/09 08:11:54;;;;;;;3.70;1.83;;;16.20;99.90;;;;;;4844443;29;20506;-54
2023/08/09 08:14:24;;;;;;;4.20;1.90;;;16.20;99.90;;;;;;4844355;29;20125;-54
2023/08/09 08:16:51;;;;;;;5.60;2.25;;;16.20;99.90;;;;;;4843927;29;20426;-54
2023/08/09 08:19:17;;;;;;;2.90;1.67;;;16.20;99.90;;;;;;4843752;29;20129;-56
2023/08/09 08:21:44;;;;;;;5.35;1.80;;;16.20;99.90;;;;;;4858263;29;20075;-52
2023/08/09 08:24:11;;;;;;;3.35;1.60;;;16.20;99.90;;;;;;4844308;29;20485;-52
2023/08/09 08:26:38;;;;;;;4.35;1.48;;;16.20;99.90;;;;;;4843900;29;20050;-54
2023/08/09 08:29:06;;;;;;;4.00;1.33;;;16.20;99.90;;;;;;4843985;29;20073;-53
2023/08/09 08:31:33;;;;;;;2.88;1.25;;;16.30;99.90;;;;;;4843957;29;20064;-52
2023/08/09 08:34:00;;;;;;;2.53;1.00;;;16.30;99.90;;;;;;4862225;29;20053;-54
2023/08/09 08:36:27;;;;;;;4.68;1.27;;;16.30;99.90;;;;;;4848176;29;20042;-57
2023/08/09 08:38:57;;;;;;;2.45;1.20;;;16.40;99.90;;;;;;4843697;29;20061;-54
2023/08/09 08:41:24;;;;;;;3.13;1.00;;;16.50;99.90;;;;;;4841782;29;20121;-56
2023/08/09 08:43:50;;;;;;;2.03;1.10;;;16.60;99.90;;;;;;4843617;29;20125;-55
2023/08/09 08:46:17;;;;;;;3.53;1.50;;;16.70;99.90;;;;;;4857078;29;20045;-56
2023/08/09 08:48:44;;;;;;;6.45;1.30;;;16.70;99.90;;;;;;4843261;29;20053;-51
2023/08/09 08:51:11;;;;;;;4.50;1.27;;;16.90;99.90;;;;;;4843520;29;20057;-56
2023/08/09 08:53:38;;;;;;;3.70;1.13;;;17.00;99.90;;;;;;4842370;29;20053;-56
2023/08/09 08:56:05;;;;;;;2.22;1.20;;;17.10;99.90;;;;;;4843046;29;20056;-51
2023/08/09 08:58:31;;;;;;;2.38;1.15;;;17.20;99.90;;;;;;4843664;29;20115;-55
2023/08/09 09:00:58;;;;;;;3.55;1.20;;;17.20;99.90;;;;;;4842672;29;20046;-58
2023/08/09 09:03:25;;;;;;;2.63;1.00;;;17.20;99.90;;;;;;4841656;29;20050;-56
2023/08/09 09:05:52;;;;;;;4.07;1.08;;;17.20;99.90;;;;;;4842168;29;20497;-53
2023/08/09 09:08:19;;;;;;;1.95;0.95;;;17.20;99.90;;;;;;4844094;29;20042;-58
2023/08/09 09:10:46;;;;;;;4.30;1.20;;;17.20;99.90;;;;;;4842539;29;20046;-53
2023/08/09 09:13:13;;;;;;;3.67;1.20;;;17.30;99.90;;;;;;4836026;29;20457;-54
2023/08/09 09:15:40;;;;;;;3.00;1.05;;;17.30;99.90;;;;;;4842671;29;20422;-55
2023/08/09 09:18:07;;;;;;;2.15;1.15;;;17.30;99.90;;;;;;4841708;29;20466;-55
2023/08/09 09:20:34;;;;;;;3.85;1.08;;;17.40;99.90;;;;;;4842310;29;20046;-52
2023/08/09 09:23:01;;;;;;;2.83;1.15;;;17.40;99.90;;;;;;4841751;29;20050;-55
2023/08/09 09:25:27;;;;;;;2.20;1.00;;;17.50;99.90;;;;;;4842628;29;20129;-56
2023/08/09 09:27:54;;;;;;;6.35;1.38;;;17.50;99.90;;;;;;4841485;29;20052;-55
2023/08/09 09:30:24;;;;;;;3.70;1.05;;;17.60;99.90;;;;;;4842731;29;20046;-55
2023/08/09 09:32:51;;;;;;;2.45;1.00;;;17.60;99.90;;;;;;4843589;29;20118;-54
2023/08/09 09:35:18;;;;;;;3.15;1.50;;;17.60;99.90;;;;;;4841904;29;20046;-55
2023/08/09 09:37:45;;;;;;;2.78;1.05;;;17.70;99.90;;;;;;4840356;29;20033;-53
2023/08/09 09:40:12;;;;;;;3.65;1.00;;;17.80;99.40;;;;;;4842046;29;20062;-56
2023/08/09 09:42:39;;;;;;;3.95;1.17;;;17.80;99.00;;;;;;4840192;29;20121;-51
2023/08/09 09:45:07;;;;;;;2.05;0.90;;;17.90;98.90;;;;;;4841650;29;20042;-54
2023/08/09 09:47:34;;;;;;;3.22;1.10;;;17.90;99.40;;;;;;4841734;29;20080;-55
2023/08/09 09:50:01;;;;;;;3.08;1.17;;;17.90;99.60;;;;;;4842168;29;20107;-56
2023/08/09 09:52:28;;;;;;;3.25;1.40;;;17.90;99.70;;;;;;4841659;29;20070;-54
2023/08/09 09:54:55;;;;;;;3.78;1.50;;;18.00;99.90;;;;;;4842122;29;20042;-55
2023/08/09 09:57:21;;;;;;;4.78;1.40;;;18.10;99.90;;;;;;4841472;29;20132;-56
2023/08/09 09:59:48;;;;;;;2.97;1.20;;;18.10;99.40;;;;;;4842132;29;20069;-56
2023/08/09 10:02:15;;;;;;;3.03;1.20;;;18.10;99.40;;;;;;4841973;29;20060;-54
2023/08/09 10:04:43;;;;;;;2.45;1.20;;;18.30;98.90;;;;;;4841905;29;20098;-50
2023/08/09 10:07:10;;;;;;;3.92;1.27;;;18.30;99.60;;;;;;4844101;29;20045;-54
2023/08/09 10:09:37;;;;;;;3.22;1.27;;;18.30;99.40;;;;;;4848051;29;20041;-54
2023/08/09 10:12:04;;;;;;;2.63;1.10;;;18.40;99.70;;;;;;4847681;29;20475;-50
2023/08/09 10:14:31;;;;;;;4.47;1.17;;;18.40;99.80;;;;;;4852100;29;20049;-50
2023/08/09 10:16:57;;;;;;;2.63;1.25;;;18.50;99.90;;;;;;4848170;29;20065;-56
2023/08/09 10:19:39;;;;;;;3.00;1.25;;;18.60;99.90;;;;;;4847606;29;20124;-52
2023/08/09 10:22:07;;;;;;;3.65;1.10;;;18.70;99.70;;;;;;4861570;29;20401;-53
2023/08/09 10:24:33;;;;;;;3.22;1.30;;;18.70;98.50;;;;;;4847969;29;20038;-57
2023/08/09 10:27:04;;;;;;;2.08;1.00;;;18.70;99.20;;;;;;4850183;29;20050;-54
2023/08/09 10:29:30;;;;;;;2.08;1.10;;;18.70;99.40;;;;;;4848040;29;20057;-48
2023/08/09 10:31:57;;;;;;;2.88;1.10;;;18.80;99.10;;;;;;4847767;29;20046;-54
2023/08/09 10:34:24;;;;;;;2.70;1.02;;;18.80;99.40;;;;;;4847772;29;20106;-57
2023/08/09 10:36:53;;;;;;;3.15;1.17;;;18.90;98.60;;;;;;4847346;29;20129;-53
2023/08/09 10:39:20;;;;;;;2.25;1.10;;;19.00;99.20;;;;;;4847605;29;20474;-56
2023/08/09 10:41:46;;;;;;;3.28;1.38;;;19.00;98.90;;;;;;4847526;29;20050;-54
2023/08/09 10:44:13;;;;;;;2.85;1.40;;;19.10;97.80;;;;;;4847811;29;20048;-58
2023/08/09 10:46:40;;;;;;;2.42;1.20;;;19.20;97.10;;;;;;4847459;29;20045;-55
2023/08/09 10:49:07;;;;;;;2.75;1.10;;;19.20;97.70;;;;;;4847530;29;20048;-57
2023/08/09 10:51:33;;;;;;;2.95;1.27;;;19.30;97.70;;;;;;4847434;29;20038;-52
2023/08/09 10:54:00;;;;;;;3.25;1.40;;;19.20;98.60;;;;;;4847761;29;20122;-54
2023/08/09 10:56:27;;;;;;;3.58;1.27;;;19.30;98.70;;;;;;4833587;29;20058;-53
2023/08/09 10:58:54;;;;;;;1.88;0.98;;;19.40;98.80;;;;;;4847612;29;20054;-55
2023/08/09 11:01:21;;;;;;;2.53;1.10;;;19.40;97.70;;;;;;4847321;29;20125;-56
2023/08/09 11:03:48;;;;;;;4.50;1.38;;;19.50;98.50;;;;;;4847396;29;20125;-55
2023/08/09 11:06:14;;;;;;;3.75;1.20;;;19.60;98.60;;;;;;4844494;29;20049;-55
2023/08/09 11:08:41;;;;;;;4.43;1.20;;;19.60;97.70;;;;;;4847506;29;20066;-52
2023/08/09 11:11:08;;;;;;;4.22;1.23;;;19.60;97.60;;;;;;4834110;29;20066;-57
2023/08/09 11:13:35;;;;;;;2.60;1.25;;;19.70;98.60;;;;;;4847197;29;20474;-56
2023/08/09 11:16:07;;;;;;;3.08;1.23;;;19.70;97.70;;;;;;4847527;29;20111;-53
2023/08/09 11:18:34;;;;;;;4.43;1.25;;;19.70;98.20;;;;;;4844774;29;20482;-52
2023/08/09 11:21:00;;;;;;;3.40;1.13;;;19.70;97.90;;;;;;4844209;29;20054;-54
2023/08/09 11:23:28;;;;;;;3.30;1.30;;;19.70;97.50;;;;;;4844215;29;20413;-51
2023/08/09 11:25:54;;;;;;;2.75;1.20;;;19.70;97.80;;;;;;4844158;29;20061;-57
2023/08/09 11:28:21;;;;;;;5.10;1.75;;;19.80;98.40;;;;;;4843789;29;20041;-57
2023/08/09 11:30:48;;;;;;;2.78;1.17;;;20.00;97.70;;;;;;4844333;29;20125;-57
2023/08/09 11:33:15;;;;;;;3.10;1.25;;;20.00;97.70;;;;;;4843998;29;20041;-57
2023/08/09 11:35:46;;;;;;;2.72;1.10;;;20.00;96.30;;;;;;4843714;29;20054;-56
2023/08/09 11:38:13;;;;;;;3.88;1.70;;;20.00;97.30;;;;;;4844370;29;20054;-56
2023/08/09 11:40:40;;;;;;;3.20;1.48;;;20.00;97.30;;;;;;4843884;29;20500;-54
2023/08/09 11:43:07;;;;;;;2.30;1.40;;;20.00;97.10;;;;;;4843978;29;20042;-55
2023/08/09 11:45:33;;;;;;;3.20;1.88;;;20.10;97.70;;;;;;4843782;29;20080;-55
2023/08/09 11:48:00;;;;;;;5.07;1.30;;;20.20;97.80;;;;;;4838023;29;20640;-56
2023/08/09 11:50:27;;;;;;;4.20;1.55;;;20.30;97.40;;;;;;4838246;29;20102;-55
2023/08/09 11:52:54;;;;;;;4.80;1.52;;;20.30;97.30;;;;;;4836627;29;20042;-54
2023/08/09 11:55:20;;;;;;;1.95;1.17;;;20.30;97.70;;;;;;4843198;29;20509;-55
2023/08/09 11:57:48;;;;;;;2.85;1.30;;;20.30;97.70;;;;;;4838249;29;20052;-51
2023/08/09 12:00:15;;;;;;;4.88;1.90;;;20.30;97.40;;;;;;4844069;29;20102;-53
2023/08/09 12:02:43;;;;;;;3.95;1.77;;;20.40;97.60;;;;;;4843908;29;20077;-54
2023/08/09 12:05:10;;;;;;;3.20;1.45;;;20.40;96.70;;;;;;4844133;29;20094;-56
2023/08/09 12:07:37;;;;;;;4.18;1.42;;;20.30;96.40;;;;;;4842329;29;20062;-56
2023/08/09 12:10:04;;;;;;;3.30;1.42;;;20.40;96.60;;;;;;4843624;29;20053;-53
2023/08/09 12:12:30;;;;;;;4.55;1.50;;;20.40;97.20;;;;;;4843822;29;20057;-56
2023/08/09 12:14:57;;;;;;;2.67;1.40;;;20.50;97.50;;;;;;4843429;29;20410;-54
2023/08/09 12:17:24;;;;;;;2.72;1.50;;;20.70;97.80;;;;;;4857791;29;20081;-47
2023/08/09 12:19:51;;;;;;;4.63;1.63;;;20.90;97.00;;;;;;4843255;29;20102;-51
2023/08/09 12:22:18;;;;;;;2.70;1.63;;;21.00;97.00;;;;;;4843956;29;20042;-53
2023/08/09 12:24:45;;;;;;;3.03;1.40;;;20.90;96.40;;;;;;4843239;29;20049;-53
2023/08/09 12:27:12;;;;;;;4.88;1.40;;;20.80;97.00;;;;;;4843682;29;20038;-54
2023/08/09 12:29:38;;;;;;;4.72;1.45;;;20.70;96.80;;;;;;4836821;29;20038;-52
2023/08/09 12:32:05;;;;;;;2.33;1.40;;;20.60;97.20;;;;;;4857320;29;20069;-52
2023/08/09 12:34:32;;;;;;;2.03;1.23;;;20.70;97.60;;;;;;4843215;29;20042;-51
2023/08/09 12:37:00;;;;;;;4.00;1.60;;;20.80;97.30;;;;;;4843540;29;20046;-55
2023/08/09 12:39:30;;;;;;;2.88;1.17;;;20.90;96.90;;;;;;4843285;29;20057;-56
2023/08/09 12:41:57;;;;;;;3.75;1.67;;;21.00;96.90;;;;;;4843882;29;20489;-54